Portada
METAR-TAF:

METAR-TAF

Aeroports :

Mahajanga, Madagascar

latitud: 15-40S, longitud: 046-21E, altitud: 26 m

Observació

L'informe es va fer fa 1 hora i 8 minuts, a les 23:00 UTC
Vent 16 kt del Nord
Temperatura 28°C
Humitat 89%
Pressió 1003 hPa
Visibilitat 10 km o més
Núvols disperses a una alçada de 2000 ft, Cumulonimbus.
Núvols disperses a una alçada de 4000 ft

METAR: FMNM 202300Z 36016KT 9999 SCT020CB SCT040 28/26 Q1003

Hora: 03:08 (00:08 UTC)

Pronòstic

L'informe es va fer fa 1 hora i 8 minuts, a les 23:00 UTC
Pronòstic vàlid del 21 a les 00 UTC al 21 a les 24 UTC
Vent 13 kt del Nord/Nord-Oest
Visibilitat 10 km o més
Núvols disperses a una alçada de 1700 ft, Cumulonimbus.
Cel ennuvolat a una alçada de 4000 ft
Temporalment
l' 21 a les 04 UTC al 21 a les 24 UTC
Visibilitat: 3500 m
tempesta, pluja

TAF: FMNM 202300Z 2100/2124 34013KT 9999 SCT017CB BKN040 TEMPO 2104/2124 3500 TSRA

Observacions i pronòstics meteorològics de més de 4000 aeroports (METAR i TAF).

Les estacions disponibles són els punts grocs i vermells al mapa.

Posi el ratolí al punt desitjat per veure el nom de l'estació.

Feu clic per veure les observacions i els pronòstics meteorològics.

Per canviar el mapa: feu clic els botons verds amb una creu de color negre per apropar; al botó verd amb un guió per allunyar la imatge; o en les fletxes verdes per a mapes adjacents.


METAR-TAF: